createdAt,value
2023-10-29T00:00:44.668Z,13.40
2023-10-29T00:03:13.827Z,13.40
2023-10-29T00:05:44.668Z,13.40
2023-10-29T00:08:13.638Z,13.40
2023-10-29T00:10:42.740Z,13.40
2023-10-29T00:13:11.646Z,13.50
2023-10-29T00:15:41.071Z,13.40
2023-10-29T00:18:13.522Z,13.40
2023-10-29T00:20:43.875Z,13.40
2023-10-29T00:23:12.922Z,13.40
2023-10-29T00:25:42.021Z,13.40
2023-10-29T00:28:12.622Z,13.40
2023-10-29T00:30:41.433Z,13.40
2023-10-29T00:33:10.445Z,13.40
2023-10-29T00:35:39.435Z,13.40
2023-10-29T00:38:09.686Z,13.30
2023-10-29T00:40:40.088Z,13.30
2023-10-29T00:43:09.090Z,13.40
2023-10-29T00:45:38.218Z,13.30
2023-10-29T00:48:09.273Z,13.30
2023-10-29T00:50:38.618Z,13.40
2023-10-29T00:53:09.396Z,13.40
2023-10-29T00:55:38.566Z,13.40
2023-10-29T00:58:07.421Z,13.50
2023-10-29T01:00:36.274Z,13.50
2023-10-29T01:03:05.719Z,13.60
2023-10-29T01:05:34.914Z,13.60
2023-10-29T01:08:06.474Z,13.60
2023-10-29T01:10:37.061Z,13.70
2023-10-29T01:13:05.951Z,13.70
2023-10-29T01:15:35.306Z,13.80
2023-10-29T01:18:05.146Z,13.80
2023-10-29T01:20:34.142Z,13.80
2023-10-29T01:23:03.885Z,13.80
2023-10-29T01:25:32.854Z,13.80
2023-10-29T01:28:03.149Z,13.90
2023-10-29T01:30:32.628Z,13.80
2023-10-29T01:33:01.559Z,13.80
2023-10-29T01:35:30.528Z,13.80
2023-10-29T01:37:59.517Z,13.80
2023-10-29T01:40:28.325Z,13.80
2023-10-29T01:42:57.144Z,13.90
2023-10-29T01:45:27.462Z,13.90
2023-10-29T01:47:56.382Z,13.80
2023-10-29T01:50:25.314Z,13.80
2023-10-29T01:52:55.460Z,13.90
2023-10-29T01:55:24.331Z,13.90
2023-10-29T01:57:53.162Z,13.90
2023-10-29T02:00:25.410Z,13.90
2023-10-29T02:02:56.269Z,14.00
2023-10-29T02:05:25.380Z,14.00
2023-10-29T02:07:54.281Z,14.00
2023-10-29T02:10:23.306Z,14.00
2023-10-29T02:12:52.814Z,14.00
2023-10-29T02:15:21.910Z,14.10
2023-10-29T02:17:50.776Z,14.10
2023-10-29T02:20:20.993Z,14.00
2023-10-29T02:22:51.202Z,13.90
2023-10-29T02:25:20.035Z,13.90
2023-10-29T02:27:49.007Z,13.90
2023-10-29T02:30:18.190Z,13.90
2023-10-29T02:32:47.975Z,13.80
2023-10-29T02:35:16.900Z,13.80
2023-10-29T02:37:45.869Z,13.90
2023-10-29T02:40:17.761Z,13.90
2023-10-29T02:42:46.640Z,13.90
2023-10-29T02:45:15.622Z,13.90
2023-10-29T02:47:44.580Z,14.00
2023-10-29T02:50:13.663Z,13.90
2023-10-29T02:52:42.563Z,13.90
2023-10-29T02:55:11.385Z,13.90
2023-10-29T02:57:41.593Z,13.90
2023-10-29T03:00:13.629Z,14.00
2023-10-29T03:02:42.708Z,14.00
2023-10-29T03:05:12.511Z,14.00
2023-10-29T03:07:42.260Z,14.00
2023-10-29T03:10:11.289Z,14.00
2023-10-29T03:12:41.459Z,14.00
2023-10-29T03:15:11.742Z,14.00
2023-10-29T03:17:40.983Z,14.00
2023-10-29T03:20:10.605Z,14.10
2023-10-29T03:22:39.108Z,14.10
2023-10-29T03:25:07.912Z,14.10
2023-10-29T03:27:36.670Z,14.10
2023-10-29T03:30:08.035Z,14.10
2023-10-29T03:32:36.561Z,14.10
2023-10-29T03:35:06.163Z,14.10
2023-10-29T03:37:34.749Z,14.10
2023-10-29T03:40:03.336Z,14.00
2023-10-29T03:42:31.822Z,14.00
2023-10-29T03:45:00.290Z,14.00
2023-10-29T03:47:30.191Z,13.90
2023-10-29T03:49:58.712Z,14.00
2023-10-29T03:52:27.400Z,14.00
2023-10-29T03:54:56.012Z,14.00
2023-10-29T03:57:24.446Z,14.00
2023-10-29T03:59:54.548Z,13.90
2023-10-29T04:02:23.018Z,13.90
2023-10-29T04:05:05.634Z,13.90
2023-10-29T04:07:37.166Z,13.90
2023-10-29T04:10:06.247Z,13.90
2023-10-29T04:12:34.808Z,13.90
2023-10-29T04:15:06.067Z,13.90
2023-10-29T04:17:35.190Z,13.90
2023-10-29T04:20:06.932Z,14.00
2023-10-29T04:22:35.443Z,14.00
2023-10-29T04:25:03.941Z,14.00
2023-10-29T04:27:32.405Z,14.00
2023-10-29T04:30:00.952Z,14.00
2023-10-29T04:32:30.125Z,13.90
2023-10-29T04:34:58.610Z,13.90
2023-10-29T04:37:28.508Z,13.90
2023-10-29T04:39:57.632Z,13.90
2023-10-29T04:42:26.098Z,13.90
2023-10-29T04:44:54.555Z,13.90
2023-10-29T04:47:23.023Z,13.90
2023-10-29T04:49:51.554Z,13.90
2023-10-29T04:52:20.076Z,14.00
2023-10-29T04:54:49.962Z,14.00
2023-10-29T04:57:21.501Z,14.00
2023-10-29T04:59:50.592Z,14.20
2023-10-29T05:02:19.161Z,14.30
2023-10-29T05:04:49.363Z,14.30
2023-10-29T05:07:18.007Z,14.40
2023-10-29T05:09:46.574Z,14.40
2023-10-29T05:12:16.393Z,14.60
2023-10-29T05:14:44.937Z,14.50
2023-10-29T05:17:13.566Z,14.50
2023-10-29T05:19:42.019Z,14.50
2023-10-29T05:22:10.542Z,14.60
2023-10-29T05:24:39.054Z,14.60
2023-10-29T05:27:07.699Z,14.70
2023-10-29T05:29:37.589Z,14.70
2023-10-29T05:32:07.165Z,14.70
2023-10-29T05:34:35.708Z,14.70
2023-10-29T05:37:04.718Z,14.70
2023-10-29T05:39:33.306Z,14.80
2023-10-29T05:42:01.815Z,14.70
2023-10-29T05:44:30.343Z,14.70
2023-10-29T05:47:00.173Z,14.80
2023-10-29T05:49:28.750Z,14.70
2023-10-29T05:51:57.263Z,14.70
2023-10-29T05:54:25.706Z,14.80
2023-10-29T05:56:54.189Z,14.80
2023-10-29T05:59:22.685Z,14.80
2023-10-29T06:01:51.198Z,14.80
2023-10-29T06:04:21.871Z,14.80
2023-10-29T06:06:50.377Z,14.80
2023-10-29T06:09:24.294Z,14.80
2023-10-29T06:11:54.066Z,14.70
2023-10-29T06:14:23.882Z,14.80
2023-10-29T06:17:03.505Z,14.70
2023-10-29T06:19:35.907Z,14.70
2023-10-29T06:22:06.693Z,14.70
2023-10-29T06:24:35.268Z,14.60
2023-10-29T06:27:04.101Z,14.60
2023-10-29T06:29:32.685Z,14.60
2023-10-29T06:32:01.223Z,14.50
2023-10-29T06:34:29.722Z,14.50
2023-10-29T06:36:59.546Z,14.50
2023-10-29T06:39:28.015Z,14.40
2023-10-29T06:41:56.495Z,14.40
2023-10-29T06:44:25.242Z,14.40
2023-10-29T06:46:53.733Z,14.40
2023-10-29T06:49:22.237Z,14.40
2023-10-29T06:51:50.782Z,14.40
2023-10-29T06:54:20.942Z,14.40
2023-10-29T06:56:49.809Z,14.40
2023-10-29T06:59:19.609Z,14.30
2023-10-29T07:01:48.552Z,14.30
2023-10-29T07:04:17.407Z,14.30
2023-10-29T07:06:47.545Z,14.20
2023-10-29T07:09:16.853Z,14.20
2023-10-29T07:11:47.738Z,14.20
2023-10-29T07:14:16.432Z,14.20
2023-10-29T07:16:45.906Z,14.20
2023-10-29T07:19:14.986Z,14.30
2023-10-29T07:21:43.535Z,14.30
2023-10-29T07:24:12.488Z,14.20
2023-10-29T07:26:42.168Z,14.20
2023-10-29T07:29:12.783Z,14.20
2023-10-29T07:31:41.285Z,14.20
2023-10-29T07:34:09.918Z,14.30
2023-10-29T07:36:38.515Z,14.30
2023-10-29T07:39:07.302Z,14.30
2023-10-29T07:41:35.976Z,14.30
2023-10-29T07:44:04.628Z,14.40
2023-10-29T07:46:34.688Z,14.30
2023-10-29T07:49:04.836Z,14.40
2023-10-29T07:51:33.318Z,14.40
2023-10-29T07:54:01.910Z,14.40
2023-10-29T07:56:30.410Z,14.40
2023-10-29T07:58:58.885Z,14.40
2023-10-29T08:01:27.363Z,14.40
2023-10-29T08:03:58.429Z,14.50
2023-10-29T08:06:27.481Z,14.50
2023-10-29T08:08:55.982Z,14.50
2023-10-29T08:11:24.620Z,14.50
2023-10-29T08:13:53.239Z,14.60
2023-10-29T08:16:21.780Z,14.60
2023-10-29T08:18:50.398Z,14.70
2023-10-29T08:21:20.412Z,14.80
2023-10-29T08:23:48.990Z,14.80
2023-10-29T08:26:17.715Z,14.80
2023-10-29T08:28:46.223Z,14.90
2023-10-29T08:31:14.941Z,14.90
2023-10-29T08:33:44.611Z,14.90
2023-10-29T08:36:13.170Z,14.90
2023-10-29T08:38:42.997Z,14.90
2023-10-29T08:41:15.382Z,14.90
2023-10-29T08:43:43.918Z,14.90
2023-10-29T08:46:12.737Z,14.90
2023-10-29T08:48:41.842Z,15.00
2023-10-29T08:51:12.802Z,15.00
2023-10-29T08:53:42.864Z,15.00
2023-10-29T08:56:11.385Z,15.10
2023-10-29T08:58:40.076Z,15.00
2023-10-29T09:01:11.173Z,15.00
2023-10-29T09:03:40.164Z,15.00
2023-10-29T09:06:10.280Z,15.00
2023-10-29T09:08:39.634Z,15.00
2023-10-29T09:11:14.762Z,14.90
2023-10-29T09:13:43.746Z,14.90
2023-10-29T09:16:13.596Z,14.90
2023-10-29T09:18:42.753Z,14.90
2023-10-29T09:21:12.601Z,14.80
2023-10-29T09:23:41.609Z,14.90
2023-10-29T09:26:12.111Z,14.90
2023-10-29T09:28:40.969Z,15.00
2023-10-29T09:31:10.034Z,14.90
2023-10-29T09:33:40.296Z,15.00
2023-10-29T09:36:09.748Z,15.00
2023-10-29T09:38:38.729Z,15.00
2023-10-29T09:41:08.623Z,15.00
2023-10-29T09:43:43.173Z,14.90
2023-10-29T09:46:13.787Z,14.90
2023-10-29T09:48:45.635Z,14.90
2023-10-29T09:51:16.360Z,14.90
2023-10-29T09:53:45.611Z,14.80
2023-10-29T09:56:14.826Z,14.80
2023-10-29T09:58:45.629Z,14.80
2023-10-29T10:01:15.431Z,14.70
2023-10-29T10:03:44.495Z,14.70
2023-10-29T10:06:15.632Z,14.80
2023-10-29T10:08:45.259Z,14.80
2023-10-29T10:11:24.508Z,14.80
2023-10-29T10:13:55.277Z,14.80
2023-10-29T10:16:25.182Z,14.80
2023-10-29T10:18:56.122Z,14.80
2023-10-29T10:21:27.251Z,14.90
2023-10-29T10:23:57.841Z,14.80
2023-10-29T10:26:32.217Z,14.90
2023-10-29T10:29:04.446Z,14.80
2023-10-29T10:31:35.016Z,14.80
2023-10-29T10:34:12.559Z,14.90
2023-10-29T10:36:41.705Z,14.90
2023-10-29T10:39:11.833Z,14.90
2023-10-29T10:41:43.122Z,14.90
2023-10-29T10:44:14.906Z,14.90
2023-10-29T10:46:50.047Z,14.90
2023-10-29T10:49:19.811Z,14.90
2023-10-29T10:51:50.209Z,14.90
2023-10-29T10:54:19.860Z,14.90
2023-10-29T10:56:52.294Z,15.00
2023-10-29T10:59:23.212Z,14.90
2023-10-29T11:01:52.147Z,14.90
2023-10-29T11:04:22.912Z,15.00
2023-10-29T11:06:52.800Z,15.00
2023-10-29T11:09:24.051Z,15.00
2023-10-29T11:11:56.000Z,15.00
2023-10-29T11:14:27.314Z,15.00
2023-10-29T11:16:57.167Z,15.00
2023-10-29T11:19:45.514Z,15.10
2023-10-29T11:22:19.364Z,15.10
2023-10-29T11:25:21.608Z,15.20
2023-10-29T11:27:50.429Z,15.20
2023-10-29T11:30:22.488Z,15.20
2023-10-29T11:33:19.750Z,15.20
2023-10-29T11:35:48.801Z,15.30
2023-10-29T11:38:31.896Z,15.30
2023-10-29T11:41:00.981Z,15.40
2023-10-29T11:43:29.694Z,15.40
2023-10-29T11:46:01.410Z,15.50
2023-10-29T11:48:32.488Z,15.70
2023-10-29T11:51:21.420Z,15.80
2023-10-29T11:53:50.458Z,15.80
2023-10-29T11:56:21.761Z,15.90
2023-10-29T11:59:06.690Z,15.90
2023-10-29T12:01:40.226Z,15.90
2023-10-29T12:04:11.321Z,15.90
2023-10-29T12:06:44.805Z,15.90
2023-10-29T12:09:18.408Z,15.90
2023-10-29T12:11:47.558Z,15.90
2023-10-29T12:14:16.442Z,15.90
2023-10-29T12:16:48.129Z,15.80
2023-10-29T12:19:17.190Z,15.80
2023-10-29T12:21:53.249Z,15.80
2023-10-29T12:24:22.199Z,15.70
2023-10-29T12:26:50.333Z,15.70
2023-10-29T12:29:19.423Z,15.70
2023-10-29T12:31:50.082Z,15.70
2023-10-29T12:34:21.007Z,15.70
2023-10-29T12:36:52.015Z,15.70
2023-10-29T12:39:23.179Z,15.80
2023-10-29T12:41:54.974Z,15.80
2023-10-29T12:44:23.914Z,15.80
2023-10-29T12:46:54.362Z,15.80
2023-10-29T12:49:33.516Z,15.80
2023-10-29T12:52:03.648Z,15.80
2023-10-29T12:54:34.986Z,15.70
2023-10-29T12:57:13.078Z,15.70
2023-10-29T12:59:42.291Z,15.70
2023-10-29T13:02:23.615Z,15.70
2023-10-29T13:04:52.477Z,15.70
2023-10-29T13:07:22.120Z,15.60
2023-10-29T13:09:53.397Z,15.60
2023-10-29T13:12:23.102Z,15.60
2023-10-29T13:14:52.074Z,15.70
2023-10-29T13:17:22.707Z,15.70
2023-10-29T13:19:53.855Z,15.80
2023-10-29T13:22:22.937Z,15.90
2023-10-29T13:24:51.831Z,15.90
2023-10-29T13:27:21.517Z,16.00
2023-10-29T13:29:53.367Z,16.00
2023-10-29T13:32:23.583Z,16.00
2023-10-29T13:34:55.166Z,16.00
2023-10-29T13:37:24.134Z,16.00
2023-10-29T13:39:53.511Z,16.00
2023-10-29T13:42:23.500Z,16.00
2023-10-29T13:44:53.201Z,16.10
2023-10-29T13:47:25.099Z,16.20
2023-10-29T13:49:54.251Z,16.20
2023-10-29T13:52:24.481Z,16.20
2023-10-29T13:54:53.521Z,16.20
2023-10-29T13:57:22.404Z,16.10
2023-10-29T13:59:51.879Z,16.10
2023-10-29T14:02:20.777Z,16.10
2023-10-29T14:04:51.000Z,16.10
2023-10-29T14:07:19.895Z,16.20
2023-10-29T14:09:48.941Z,16.20
2023-10-29T14:12:18.032Z,16.20
2023-10-29T14:14:48.074Z,16.30
2023-10-29T14:17:18.118Z,16.30
2023-10-29T14:19:47.005Z,16.30
2023-10-29T14:22:17.240Z,16.40
2023-10-29T14:24:49.993Z,16.40
2023-10-29T14:27:19.003Z,16.40
2023-10-29T14:29:48.134Z,16.40
2023-10-29T14:32:17.186Z,16.40
2023-10-29T14:34:46.342Z,16.40
2023-10-29T14:37:18.118Z,16.40
2023-10-29T14:39:47.048Z,16.30
2023-10-29T14:42:15.975Z,16.20
2023-10-29T14:44:45.428Z,16.10
2023-10-29T14:47:14.422Z,16.10
2023-10-29T14:49:43.939Z,16.00
2023-10-29T14:52:12.902Z,15.90
2023-10-29T14:54:43.156Z,15.90
2023-10-29T14:57:28.547Z,15.80
2023-10-29T14:59:58.898Z,15.70
2023-10-29T15:02:28.196Z,15.70
2023-10-29T15:04:58.900Z,15.70
2023-10-29T15:07:28.387Z,15.70
2023-10-29T15:09:58.688Z,15.60
2023-10-29T15:12:27.597Z,15.60
2023-10-29T15:14:56.715Z,15.50
2023-10-29T15:17:26.318Z,15.50
2023-10-29T15:19:58.565Z,15.60
2023-10-29T15:22:28.364Z,15.50
2023-10-29T15:24:58.705Z,15.40
2023-10-29T15:27:27.768Z,15.40
2023-10-29T15:29:57.906Z,15.40
2023-10-29T15:32:26.722Z,15.40
2023-10-29T15:34:58.316Z,15.40
2023-10-29T15:37:27.970Z,15.30
2023-10-29T15:39:58.746Z,15.30
2023-10-29T15:42:27.961Z,15.30
2023-10-29T15:44:56.930Z,15.20
2023-10-29T15:47:27.508Z,15.30
2023-10-29T15:49:56.958Z,15.20
2023-10-29T15:52:26.064Z,15.20
2023-10-29T15:54:54.994Z,15.20
2023-10-29T15:57:25.417Z,15.20
2023-10-29T15:59:54.400Z,15.20
2023-10-29T16:02:23.542Z,15.10
2023-10-29T16:04:52.542Z,15.10
2023-10-29T16:07:21.524Z,15.10
2023-10-29T16:09:50.617Z,15.10
2023-10-29T16:12:19.537Z,15.10
2023-10-29T16:14:51.851Z,15.00
2023-10-29T16:17:20.488Z,15.00
2023-10-29T16:19:48.974Z,15.00
2023-10-29T16:22:17.437Z,15.00
2023-10-29T16:24:45.993Z,14.90
2023-10-29T16:27:14.523Z,14.90
2023-10-29T16:29:42.949Z,14.80
2023-10-29T16:32:12.764Z,14.90
2023-10-29T16:34:42.121Z,14.70
2023-10-29T16:37:12.014Z,14.60
2023-10-29T16:39:40.543Z,14.60
2023-10-29T16:42:09.064Z,14.50
2023-10-29T16:44:37.575Z,14.50
2023-10-29T16:47:06.940Z,14.40
2023-10-29T16:49:36.742Z,14.40
2023-10-29T16:52:05.584Z,14.30
2023-10-29T16:54:34.506Z,14.30
2023-10-29T16:57:03.331Z,14.20
2023-10-29T16:59:31.847Z,14.20
2023-10-29T17:02:00.858Z,14.10
2023-10-29T17:04:29.312Z,14.10
2023-10-29T17:06:59.645Z,14.00
2023-10-29T17:09:29.898Z,13.90
2023-10-29T17:11:58.515Z,13.90
2023-10-29T17:14:27.315Z,13.90
2023-10-29T17:16:55.787Z,13.80
2023-10-29T17:19:24.353Z,13.80
2023-10-29T17:21:53.091Z,13.70
2023-10-29T17:24:27.255Z,13.70
2023-10-29T17:26:56.185Z,13.70
2023-10-29T17:29:24.633Z,13.70
2023-10-29T17:31:53.233Z,13.70
2023-10-29T17:34:21.929Z,13.70
2023-10-29T17:36:50.395Z,13.70
2023-10-29T17:39:20.862Z,13.60
2023-10-29T17:41:50.976Z,13.60
2023-10-29T17:44:19.878Z,13.60
2023-10-29T17:46:48.436Z,13.60
2023-10-29T17:49:16.919Z,13.60
2023-10-29T17:51:45.396Z,13.50
2023-10-29T17:54:13.911Z,13.50
2023-10-29T17:56:42.655Z,13.60
2023-10-29T17:59:12.875Z,13.60
2023-10-29T18:01:44.369Z,13.50
2023-10-29T18:04:12.965Z,13.50
2023-10-29T18:06:41.533Z,13.50
2023-10-29T18:09:10.093Z,13.50
2023-10-29T18:11:39.009Z,13.50
2023-10-29T18:14:07.479Z,13.50
2023-10-29T18:16:37.317Z,13.50
2023-10-29T18:19:06.705Z,13.50
2023-10-29T18:21:36.159Z,13.50
2023-10-29T18:24:05.099Z,13.50
2023-10-29T18:26:33.623Z,13.60
2023-10-29T18:29:03.327Z,13.60
2023-10-29T18:31:31.808Z,13.60
2023-10-29T18:34:01.715Z,13.70
2023-10-29T18:36:30.282Z,13.70
2023-10-29T18:39:00.244Z,13.70
2023-10-29T18:41:28.813Z,13.70
2023-10-29T18:44:01.180Z,13.70
2023-10-29T18:46:29.888Z,13.70
2023-10-29T18:48:58.380Z,13.70
2023-10-29T18:51:28.305Z,13.70
2023-10-29T18:53:56.859Z,13.70
2023-10-29T18:56:25.828Z,13.60
2023-10-29T18:58:56.331Z,13.60
2023-10-29T19:01:25.062Z,13.60
2023-10-29T19:03:53.724Z,13.50
2023-10-29T19:06:22.573Z,13.60
2023-10-29T19:08:52.940Z,13.50
2023-10-29T19:11:21.427Z,13.50
2023-10-29T19:13:49.884Z,13.50
2023-10-29T19:16:18.774Z,13.40
2023-10-29T19:18:47.264Z,13.40
2023-10-29T19:21:15.939Z,13.40
2023-10-29T19:23:44.444Z,13.40
2023-10-29T19:26:14.261Z,13.40
2023-10-29T19:28:42.799Z,13.40
2023-10-29T19:31:25.083Z,13.40
2023-10-29T19:33:55.698Z,13.40
2023-10-29T19:36:24.284Z,13.40
2023-10-29T19:38:52.734Z,13.40
2023-10-29T19:41:22.545Z,13.40
2023-10-29T19:43:50.988Z,13.40
2023-10-29T19:46:19.574Z,13.40
2023-10-29T19:48:48.455Z,13.40
2023-10-29T19:51:17.027Z,13.40
2023-10-29T19:53:45.555Z,13.40
2023-10-29T19:56:14.107Z,13.40
2023-10-29T19:58:43.931Z,13.40
2023-10-29T20:01:13.127Z,13.40
2023-10-29T20:03:41.918Z,13.40
2023-10-29T20:06:12.737Z,13.40
2023-10-29T20:08:42.248Z,13.40
2023-10-29T20:11:11.851Z,13.40
2023-10-29T20:13:41.883Z,13.40
2023-10-29T20:16:11.983Z,13.40
2023-10-29T20:18:40.571Z,13.40
2023-10-29T20:21:14.135Z,13.40
2023-10-29T20:23:44.510Z,13.40
2023-10-29T20:26:14.085Z,13.40
2023-10-29T20:28:42.758Z,13.40
2023-10-29T20:31:12.580Z,13.40
2023-10-29T20:33:41.070Z,13.40
2023-10-29T20:36:11.341Z,13.40
2023-10-29T20:38:40.081Z,13.30
2023-10-29T20:41:10.710Z,13.30
2023-10-29T20:43:39.671Z,13.30
2023-10-29T20:46:10.186Z,13.30
2023-10-29T20:48:40.503Z,13.30
2023-10-29T20:51:09.080Z,13.40
2023-10-29T20:53:37.821Z,13.40
2023-10-29T20:56:07.788Z,13.30
2023-10-29T20:58:36.264Z,13.30
2023-10-29T21:01:05.481Z,13.30
2023-10-29T21:03:34.349Z,13.20
2023-10-29T21:06:04.698Z,13.20
2023-10-29T21:08:33.262Z,13.20
2023-10-29T21:11:05.656Z,13.10
2023-10-29T21:13:34.189Z,13.10
2023-10-29T21:16:06.891Z,13.10
2023-10-29T21:18:36.875Z,13.10
2023-10-29T21:21:07.573Z,13.10
2023-10-29T21:23:37.484Z,13.10
2023-10-29T21:26:06.555Z,13.10
2023-10-29T21:28:35.597Z,13.10
2023-10-29T21:31:04.939Z,13.00
2023-10-29T21:33:34.087Z,13.00
2023-10-29T21:36:05.396Z,13.00
2023-10-29T21:38:35.539Z,13.00
2023-10-29T21:41:05.546Z,13.00
2023-10-29T21:43:37.617Z,13.00
2023-10-29T21:46:07.761Z,13.00
2023-10-29T21:48:37.492Z,13.00
2023-10-29T21:51:07.686Z,13.00
2023-10-29T21:53:38.061Z,12.90
2023-10-29T21:56:08.057Z,12.90
2023-10-29T21:58:37.434Z,12.90
2023-10-29T22:01:06.441Z,12.80
2023-10-29T22:03:35.546Z,12.80
2023-10-29T22:06:06.050Z,12.80
2023-10-29T22:08:36.926Z,12.70
2023-10-29T22:11:08.318Z,12.70
2023-10-29T22:13:41.044Z,12.60
2023-10-29T22:16:12.308Z,12.60
2023-10-29T22:18:42.011Z,12.60
2023-10-29T22:21:14.039Z,12.60
2023-10-29T22:23:43.493Z,12.50
2023-10-29T22:26:13.756Z,12.50
2023-10-29T22:28:42.897Z,12.50
2023-10-29T22:31:11.811Z,12.40
2023-10-29T22:33:40.687Z,12.40
2023-10-29T22:36:09.703Z,12.50
2023-10-29T22:38:38.581Z,12.40
2023-10-29T22:41:08.820Z,12.50
2023-10-29T22:43:39.385Z,12.40
2023-10-29T22:46:08.549Z,12.40
2023-10-29T22:48:37.562Z,12.40
2023-10-29T22:51:06.885Z,12.40
2023-10-29T22:53:35.707Z,12.40
2023-10-29T22:56:05.016Z,12.40
2023-10-29T22:58:33.898Z,12.30
2023-10-29T23:01:05.006Z,12.30
2023-10-29T23:03:34.239Z,12.30
2023-10-29T23:06:04.511Z,12.30
2023-10-29T23:08:36.642Z,12.30
2023-10-29T23:11:06.858Z,12.30
2023-10-29T23:13:35.722Z,12.30
2023-10-29T23:16:06.649Z,12.30
2023-10-29T23:18:35.711Z,12.30
2023-10-29T23:21:05.907Z,12.40
2023-10-29T23:23:38.093Z,12.40
2023-10-29T23:26:08.144Z,12.40
2023-10-29T23:28:39.777Z,12.40
2023-10-29T23:31:10.822Z,12.50
2023-10-29T23:33:40.292Z,12.50
2023-10-29T23:36:10.198Z,12.50
2023-10-29T23:38:40.063Z,12.50
2023-10-29T23:41:09.722Z,12.50
2023-10-29T23:43:39.246Z,12.50
2023-10-29T23:46:09.919Z,12.50
2023-10-29T23:48:39.595Z,12.50
2023-10-29T23:51:09.076Z,12.50
2023-10-29T23:53:38.838Z,12.50
2023-10-29T23:56:08.434Z,12.40
2023-10-29T23:58:37.992Z,12.40
